Time;durP1;ratioP1;P1;durP2;ratioP2;P2;SDS_P1;SDS_P2;PMS_P1;PMS_P2;Temp;Humidity;BMP_temperature;BMP_pressure;BME280_temperature;BME280_humidity;BME280_pressure;Samples;Min_cycle;Max_cycle;Signal;HPM_P1;HPM_P2
2022/09/07 00:00:47;;;;;;;3.38;2.00;;;;;;;;;;5039266;28;20041;-72
2022/09/07 00:03:13;;;;;;;3.72;2.30;;;;;;;;;;5040573;28;20136;-72
2022/09/07 00:05:43;;;;;;;2.30;1.90;;;;;;;;;;5038933;28;20131;-73
2022/09/07 00:08:09;;;;;;;5.10;1.85;;;;;;;;;;5039726;28;20497;-74
2022/09/07 00:10:35;;;;;;;4.68;2.22;;;;;;;;;;5039407;28;20344;-73
2022/09/07 00:13:00;;;;;;;4.85;2.10;;;;;;;;;;5040353;28;20857;-71
2022/09/07 00:15:26;;;;;;;6.40;2.50;;;;;;;;;;5040107;28;20460;-73
2022/09/07 00:17:51;;;;;;;4.80;2.70;;;;;;;;;;5040389;28;20094;-71
2022/09/07 00:20:17;;;;;;;4.80;2.45;;;;;;;;;;5039449;28;21098;-71
2022/09/07 00:22:42;;;;;;;5.82;2.20;;;;;;;;;;5039669;28;20102;-72
2022/09/07 00:25:08;;;;;;;7.22;2.28;;;;;;;;;;5040278;28;20068;-71
2022/09/07 00:27:33;;;;;;;5.05;2.35;;;;;;;;;;5040167;28;20057;-71
2022/09/07 00:29:59;;;;;;;4.45;2.20;;;;;;;;;;5039624;28;20044;-72
2022/09/07 00:32:24;;;;;;;3.17;2.45;;;;;;;;;;5039304;28;20131;-70
2022/09/07 00:34:50;;;;;;;2.60;2.17;;;;;;;;;;5039140;28;20052;-72
2022/09/07 00:37:16;;;;;;;6.65;2.50;;;;;;;;;;5040402;28;20056;-71
2022/09/07 00:39:41;;;;;;;4.10;2.35;;;;;;;;;;5039656;28;20480;-70
2022/09/07 00:42:07;;;;;;;5.32;2.13;;;;;;;;;;5039424;28;20043;-70
2022/09/07 00:44:41;;;;;;;5.95;2.75;;;;;;;;;;5039199;28;20052;-70
2022/09/07 00:47:39;;;;;;;3.13;1.92;;;;;;;;;;5045264;28;20052;-71
2022/09/07 00:50:21;;;;;;;4.13;1.80;;;;;;;;;;5046378;28;20460;-71
2022/09/07 00:52:51;;;;;;;5.90;1.98;;;;;;;;;;5038804;28;20076;-71
2022/09/07 00:55:17;;;;;;;3.28;1.73;;;;;;;;;;5039900;28;20059;-71
2022/09/07 00:57:46;;;;;;;4.53;1.40;;;;;;;;;;5040050;28;20048;-71
2022/09/07 01:00:12;;;;;;;3.78;1.90;;;;;;;;;;5039518;28;20501;-71
2022/09/07 01:02:38;;;;;;;6.28;1.80;;;;;;;;;;5039301;28;20041;-72
2022/09/07 01:05:16;;;;;;;5.30;1.70;;;;;;;;;;5042944;28;20679;-71
2022/09/07 01:07:43;;;;;;;2.78;1.63;;;;;;;;;;5043622;28;20083;-71
2022/09/07 01:10:08;;;;;;;2.55;1.85;;;;;;;;;;5043187;28;20144;-72
2022/09/07 01:12:34;;;;;;;6.22;1.73;;;;;;;;;;5043070;28;20063;-71
2022/09/07 01:15:00;;;;;;;4.05;2.10;;;;;;;;;;5042858;28;20784;-72
2022/09/07 01:18:09;;;;;;;4.57;1.95;;;;;;;;;;5043858;28;20123;-71
2022/09/07 01:21:19;;;;;;;2.63;1.90;;;;;;;;;;5043733;28;20045;-71
2022/09/07 01:23:44;;;;;;;6.97;2.10;;;;;;;;;;5043236;28;20063;-71
2022/09/07 01:26:38;;;;;;;2.58;1.98;;;;;;;;;;5043236;28;20052;-71
2022/09/07 01:29:13;;;;;;;4.63;1.95;;;;;;;;;;5040304;28;20075;-71
2022/09/07 01:31:45;;;;;;;4.22;1.73;;;;;;;;;;5042927;28;20131;-71
2022/09/07 01:34:21;;;;;;;5.65;1.80;;;;;;;;;;5042884;28;20071;-71
2022/09/07 01:37:00;;;;;;;3.80;1.67;;;;;;;;;;5041835;28;20068;-70
2022/09/07 01:39:44;;;;;;;4.53;1.63;;;;;;;;;;5042653;28;20622;-71
2022/09/07 01:42:13;;;;;;;3.67;1.40;;;;;;;;;;5042845;28;20967;-71
2022/09/07 01:45:00;;;;;;;5.75;1.73;;;;;;;;;;5042487;28;20052;-71
2022/09/07 01:47:35;;;;;;;6.80;2.28;;;;;;;;;;5042137;28;20060;-71
2022/09/07 01:50:10;;;;;;;2.15;1.80;;;;;;;;;;5042123;28;20044;-71
2022/09/07 01:53:00;;;;;;;5.15;1.77;;;;;;;;;;5042193;28;20049;-71
2022/09/07 01:55:32;;;;;;;6.55;1.90;;;;;;;;;;5043056;28;20088;-71
2022/09/07 01:58:10;;;;;;;3.15;1.80;;;;;;;;;;5042484;28;20139;-70
2022/09/07 02:00:38;;;;;;;3.45;2.20;;;;;;;;;;5039969;28;20040;-72
2022/09/07 02:03:18;;;;;;;5.70;2.17;;;;;;;;;;5042776;28;20409;-69
2022/09/07 02:05:49;;;;;;;4.88;2.50;;;;;;;;;;5042681;28;20509;-69
2022/09/07 02:08:26;;;;;;;3.03;2.17;;;;;;;;;;5042567;28;20060;-69
2022/09/07 02:11:06;;;;;;;6.80;3.08;;;;;;;;;;5040660;28;20049;-70
2022/09/07 02:13:36;;;;;;;4.55;2.20;;;;;;;;;;5042279;28;20390;-69
2022/09/07 02:16:25;;;;;;;5.90;2.58;;;;;;;;;;5041001;28;20059;-70
2022/09/07 02:18:55;;;;;;;2.60;2.20;;;;;;;;;;5041897;28;20053;-69
2022/09/07 02:21:25;;;;;;;3.58;1.98;;;;;;;;;;5041190;28;20163;-70
2022/09/07 02:23:55;;;;;;;3.72;2.10;;;;;;;;;;5042037;28;20037;-69
2022/09/07 02:26:24;;;;;;;5.63;2.30;;;;;;;;;;5042342;28;20477;-69
2022/09/07 02:28:49;;;;;;;2.80;2.45;;;;;;;;;;5041618;28;20053;-69
2022/09/07 02:31:16;;;;;;;4.60;2.50;;;;;;;;;;5040771;28;20111;-72
2022/09/07 02:33:41;;;;;;;5.10;2.47;;;;;;;;;;5041729;28;20059;-72
2022/09/07 02:36:08;;;;;;;5.40;2.55;;;;;;;;;;5041903;28;20516;-72
2022/09/07 02:38:34;;;;;;;8.38;2.85;;;;;;;;;;5041180;28;20048;-72
2022/09/07 02:41:01;;;;;;;3.95;2.22;;;;;;;;;;5041727;28;20041;-71
2022/09/07 02:43:29;;;;;;;3.72;2.35;;;;;;;;;;5041091;28;20048;-71
2022/09/07 02:46:18;;;;;;;6.50;1.90;;;;;;;;;;5040974;28;20490;-73
2022/09/07 02:48:50;;;;;;;4.43;2.40;;;;;;;;;;5040485;28;20056;-73
2022/09/07 02:51:27;;;;;;;3.53;2.10;;;;;;;;;;5040588;28;20048;-71
2022/09/07 02:54:07;;;;;;;3.25;2.50;;;;;;;;;;5040778;28;20048;-72
2022/09/07 02:56:49;;;;;;;6.72;2.70;;;;;;;;;;5040444;28;20049;-72
2022/09/07 02:59:28;;;;;;;;;;;;;;;;;;5041780;28;20048;-71
2022/09/07 03:02:02;;;;;;;3.35;2.45;;;;;;;;;;5040636;28;19927;-69
2022/09/07 03:04:49;;;;;;;12.48;2.40;;;;;;;;;;5040950;28;20561;-71
2022/09/07 03:07:20;;;;;;;3.90;2.17;;;;;;;;;;5038626;28;20564;-70
2022/09/07 03:09:49;;;;;;;5.75;2.08;;;;;;;;;;5041051;28;20041;-70
2022/09/07 03:12:15;;;;;;;4.47;2.42;;;;;;;;;;5041125;28;20663;-70
2022/09/07 03:14:42;;;;;;;6.88;2.03;;;;;;;;;;5040660;28;20044;-69
2022/09/07 03:17:07;;;;;;;4.35;2.10;;;;;;;;;;5038122;28;20111;-70
2022/09/07 03:19:33;;;;;;;5.00;2.33;;;;;;;;;;5039783;28;20044;-69
2022/09/07 03:21:58;;;;;;;5.60;2.38;;;;;;;;;;5041235;28;20048;-70
2022/09/07 03:24:24;;;;;;;3.42;2.30;;;;;;;;;;5040999;28;20060;-70
2022/09/07 03:26:50;;;;;;;5.80;2.30;;;;;;;;;;5039670;28;20057;-70
2022/09/07 03:29:16;;;;;;;4.40;2.00;;;;;;;;;;5036491;28;20111;-71
2022/09/07 03:31:42;;;;;;;2.33;1.92;;;;;;;;;;5039887;28;20098;-69
2022/09/07 03:34:07;;;;;;;3.75;2.10;;;;;;;;;;5041031;28;20048;-69
2022/09/07 03:36:33;;;;;;;5.20;2.85;;;;;;;;;;5040300;28;20048;-69
2022/09/07 03:38:59;;;;;;;5.38;2.85;;;;;;;;;;5040020;28;20072;-69
2022/09/07 03:41:25;;;;;;;5.85;2.03;;;;;;;;;;5040209;28;20489;-70
2022/09/07 03:43:51;;;;;;;3.42;2.17;;;;;;;;;;5040057;28;20686;-69
2022/09/07 03:46:18;;;;;;;7.90;2.80;;;;;;;;;;5040154;28;20056;-70
2022/09/07 03:48:44;;;;;;;13.85;2.90;;;;;;;;;;5038984;28;20081;-71
2022/09/07 03:51:11;;;;;;;8.27;3.13;;;;;;;;;;5040294;28;20477;-68
2022/09/07 03:53:40;;;;;;;6.38;2.40;;;;;;;;;;5040377;28;20060;-69
2022/09/07 03:56:12;;;;;;;7.38;3.00;;;;;;;;;;5040278;28;20059;-69
2022/09/07 03:58:37;;;;;;;3.75;2.97;;;;;;;;;;5039820;28;20088;-69
2022/09/07 04:01:08;;;;;;;5.25;3.00;;;;;;;;;;5039132;28;20135;-70
2022/09/07 04:03:34;;;;;;;4.15;2.47;;;;;;;;;;5040484;28;20052;-70
2022/09/07 04:06:01;;;;;;;7.97;2.88;;;;;;;;;;5040541;28;20044;-70
2022/09/07 04:08:28;;;;;;;6.45;3.03;;;;;;;;;;5040268;28;20078;-70
2022/09/07 04:10:58;;;;;;;4.75;2.80;;;;;;;;;;5038869;28;20055;-70
2022/09/07 04:13:25;;;;;;;7.57;3.33;;;;;;;;;;5040202;28;20086;-70
2022/09/07 04:15:51;;;;;;;8.43;2.95;;;;;;;;;;5039757;28;21792;-70
2022/09/07 04:18:17;;;;;;;6.85;2.80;;;;;;;;;;5040302;28;20144;-71
2022/09/07 04:20:43;;;;;;;5.03;3.22;;;;;;;;;;5038364;28;20049;-70
2022/09/07 04:23:08;;;;;;;5.90;3.30;;;;;;;;;;5040405;28;20049;-70
2022/09/07 04:25:34;;;;;;;5.10;2.92;;;;;;;;;;5041088;28;20706;-70
2022/09/07 04:28:00;;;;;;;6.03;3.22;;;;;;;;;;5040197;28;20082;-70
2022/09/07 04:30:25;;;;;;;8.93;3.47;;;;;;;;;;5039713;28;20492;-71
2022/09/07 04:32:51;;;;;;;5.65;4.00;;;;;;;;;;5038747;28;20067;-71
2022/09/07 04:35:16;;;;;;;12.45;4.05;;;;;;;;;;5043822;28;20087;-70
2022/09/07 04:37:42;;;;;;;7.68;3.95;;;;;;;;;;5044623;28;20076;-71
2022/09/07 04:40:08;;;;;;;9.52;3.88;;;;;;;;;;5042668;28;20063;-70
2022/09/07 04:42:34;;;;;;;4.88;3.60;;;;;;;;;;5043443;28;20053;-71
2022/09/07 04:44:59;;;;;;;10.88;3.70;;;;;;;;;;5042204;28;20036;-71
2022/09/07 04:47:25;;;;;;;7.65;3.30;;;;;;;;;;5042322;28;20539;-71
2022/09/07 04:49:51;;;;;;;6.90;3.28;;;;;;;;;;5043478;28;20473;-71
2022/09/07 04:52:17;;;;;;;6.80;3.60;;;;;;;;;;5043893;28;20049;-72
2022/09/07 04:54:43;;;;;;;8.20;3.67;;;;;;;;;;5042489;28;20049;-70
2022/09/07 04:57:11;;;;;;;6.20;3.20;;;;;;;;;;5043984;28;20052;-70
2022/09/07 04:59:36;;;;;;;9.20;3.35;;;;;;;;;;5041795;28;20111;-70
2022/09/07 05:02:02;;;;;;;5.65;3.15;;;;;;;;;;5043646;28;20490;-70
2022/09/07 05:04:27;;;;;;;4.20;3.58;;;;;;;;;;5043365;28;20052;-70
2022/09/07 05:06:53;;;;;;;5.93;3.17;;;;;;;;;;5041999;28;20040;-70
2022/09/07 05:09:18;;;;;;;4.95;2.88;;;;;;;;;;5043269;28;20151;-70
2022/09/07 05:11:44;;;;;;;6.72;3.22;;;;;;;;;;5042505;28;20057;-70
2022/09/07 05:14:10;;;;;;;5.40;2.95;;;;;;;;;;5042709;28;20052;-71
2022/09/07 05:16:35;;;;;;;5.68;3.17;;;;;;;;;;5041922;28;20778;-71
2022/09/07 05:19:03;;;;;;;5.07;2.70;;;;;;;;;;5042630;28;20459;-71
2022/09/07 05:21:32;;;;;;;3.35;2.75;;;;;;;;;;5042841;28;20041;-71
2022/09/07 05:23:59;;;;;;;4.13;2.70;;;;;;;;;;5054197;28;20049;-71
2022/09/07 05:26:27;;;;;;;6.47;2.72;;;;;;;;;;5046566;28;20048;-71
2022/09/07 05:28:53;;;;;;;7.45;2.97;;;;;;;;;;5057137;28;20122;-70
2022/09/07 05:31:21;;;;;;;4.85;3.33;;;;;;;;;;5042072;28;20053;-71
2022/09/07 05:33:47;;;;;;;7.15;3.90;;;;;;;;;;5042500;28;20052;-71
2022/09/07 05:36:13;;;;;;;2.75;2.55;;;;;;;;;;5042725;28;20049;-71
2022/09/07 05:38:38;;;;;;;6.10;2.72;;;;;;;;;;5041253;28;20049;-71
2022/09/07 05:41:21;;;;;;;3.03;2.40;;;;;;;;;;5041961;28;20156;-71
2022/09/07 05:43:47;;;;;;;4.70;2.45;;;;;;;;;;5042444;28;20048;-71
2022/09/07 05:46:14;;;;;;;2.63;2.30;;;;;;;;;;5042597;28;20048;-71
2022/09/07 05:48:40;;;;;;;3.05;2.50;;;;;;;;;;5041774;28;20045;-71
2022/09/07 05:51:06;;;;;;;5.07;2.15;;;;;;;;;;5041633;28;20401;-71
2022/09/07 05:53:37;;;;;;;2.70;2.22;;;;;;;;;;5042234;28;20063;-70
2022/09/07 05:56:03;;;;;;;7.35;2.28;;;;;;;;;;5057910;28;20066;-70
2022/09/07 05:58:29;;;;;;;5.65;2.50;;;;;;;;;;5042687;28;20047;-70
2022/09/07 06:00:59;;;;;;;5.78;2.47;;;;;;;;;;5060980;28;20040;-70
2022/09/07 06:03:25;;;;;;;2.92;2.42;;;;;;;;;;5061751;28;20141;-70
2022/09/07 06:06:08;;;;;;;3.60;2.42;;;;;;;;;;5059302;28;20052;-70
2022/09/07 06:08:35;;;;;;;3.35;2.30;;;;;;;;;;5059869;28;20076;-70
2022/09/07 06:11:05;;;;;;;6.35;2.10;;;;;;;;;;5060585;28;20048;-70
2022/09/07 06:13:31;;;;;;;7.50;2.30;;;;;;;;;;5058107;28;20583;-70
2022/09/07 06:16:04;;;;;;;6.93;2.00;;;;;;;;;;5059749;28;20123;-70
2022/09/07 06:18:35;;;;;;;3.92;2.50;;;;;;;;;;5060310;28;20044;-70
2022/09/07 06:21:02;;;;;;;2.67;2.17;;;;;;;;;;5042413;28;20044;-70
2022/09/07 06:23:29;;;;;;;2.47;2.25;;;;;;;;;;5061710;28;20451;-70
2022/09/07 06:25:54;;;;;;;2.95;1.80;;;;;;;;;;5061816;28;20044;-70
2022/09/07 06:28:26;;;;;;;5.90;1.75;;;;;;;;;;5060017;28;20059;-70
2022/09/07 06:30:51;;;;;;;8.10;2.28;;;;;;;;;;5060955;28;20044;-70
2022/09/07 06:33:17;;;;;;;2.35;1.80;;;;;;;;;;5061147;28;20063;-70
2022/09/07 06:35:42;;;;;;;1.70;1.60;;;;;;;;;;5061370;28;20071;-70
2022/09/07 06:38:08;;;;;;;2.85;1.77;;;;;;;;;;5058689;28;21043;-72
2022/09/07 06:40:35;;;;;;;5.00;1.90;;;;;;;;;;5050862;28;20037;-75
2022/09/07 06:43:02;;;;;;;2.53;1.48;;;;;;;;;;5061395;28;20036;-73
2022/09/07 06:45:27;;;;;;;2.25;1.75;;;;;;;;;;5061234;28;20054;-74
2022/09/07 06:47:53;;;;;;;3.60;1.58;;;;;;;;;;5060692;28;20052;-75
2022/09/07 06:50:19;;;;;;;2.92;1.65;;;;;;;;;;5051248;28;20045;-74
2022/09/07 06:52:44;;;;;;;3.22;1.48;;;;;;;;;;5029975;28;20052;-74
2022/09/07 06:55:10;;;;;;;3.47;1.80;;;;;;;;;;5038102;28;20060;-75
2022/09/07 06:57:35;;;;;;;5.63;1.55;;;;;;;;;;5040777;28;20045;-75
2022/09/07 07:00:01;;;;;;;2.63;1.77;;;;;;;;;;5039809;28;20037;-74
2022/09/07 07:02:26;;;;;;;3.95;2.13;;;;;;;;;;5039499;28;20970;-75
2022/09/07 07:04:51;;;;;;;2.47;1.52;;;;;;;;;;5040360;28;20040;-75
2022/09/07 07:07:17;;;;;;;3.08;1.90;;;;;;;;;;5041090;28;20111;-76
2022/09/07 07:09:42;;;;;;;3.33;1.83;;;;;;;;;;5043290;28;20147;-74
2022/09/07 07:12:09;;;;;;;6.18;1.77;;;;;;;;;;5047137;28;20084;-73
2022/09/07 07:14:35;;;;;;;3.05;1.90;;;;;;;;;;5037232;28;20049;-74
2022/09/07 07:17:00;;;;;;;4.60;1.88;;;;;;;;;;5039281;28;20134;-74
2022/09/07 07:19:26;;;;;;;10.13;3.13;;;;;;;;;;5038585;28;20052;-72
2022/09/07 07:21:51;;;;;;;12.85;3.47;;;;;;;;;;5038802;28;20045;-77
2022/09/07 07:24:16;;;;;;;6.10;1.95;;;;;;;;;;5039418;28;20148;-74
2022/09/07 07:26:47;;;;;;;2.75;1.70;;;;;;;;;;5038966;28;20066;-74
2022/09/07 07:29:12;;;;;;;2.10;1.65;;;;;;;;;;5036542;28;20052;-73
2022/09/07 07:31:38;;;;;;;4.93;1.88;;;;;;;;;;5036724;28;20049;-75
2022/09/07 07:34:03;;;;;;;2.75;1.60;;;;;;;;;;5039256;28;20048;-74
2022/09/07 07:36:29;;;;;;;2.65;1.75;;;;;;;;;;5038905;28;20411;-73
2022/09/07 07:38:56;;;;;;;3.08;1.95;;;;;;;;;;5054271;28;20421;-74
2022/09/07 07:41:25;;;;;;;1.42;1.33;;;;;;;;;;5036078;28;20053;-74
2022/09/07 07:43:55;;;;;;;4.72;1.77;;;;;;;;;;5037978;28;20047;-77
2022/09/07 07:46:22;;;;;;;2.80;2.08;;;;;;;;;;5039295;28;20044;-74
2022/09/07 07:48:47;;;;;;;5.72;1.60;;;;;;;;;;5037439;28;20394;-74
2022/09/07 07:51:13;;;;;;;2.38;1.33;;;;;;;;;;5037961;28;20098;-74
2022/09/07 07:53:40;;;;;;;8.35;1.30;;;;;;;;;;5039054;28;20049;-72
2022/09/07 07:56:07;;;;;;;4.60;1.17;;;;;;;;;;5039028;28;20045;-71
2022/09/07 07:58:34;;;;;;;2.05;1.45;;;;;;;;;;5035373;28;20059;-72
2022/09/07 08:01:02;;;;;;;5.47;1.48;;;;;;;;;;5038780;28;20139;-72
2022/09/07 08:03:28;;;;;;;3.05;1.40;;;;;;;;;;5038755;28;20052;-72
2022/09/07 08:05:54;;;;;;;3.00;1.70;;;;;;;;;;5036859;28;20059;-71
2022/09/07 08:08:22;;;;;;;2.75;1.60;;;;;;;;;;5038689;28;20051;-72
2022/09/07 08:10:47;;;;;;;3.95;1.67;;;;;;;;;;5037488;28;20045;-72
2022/09/07 08:13:14;;;;;;;8.93;1.80;;;;;;;;;;5037860;28;20068;-72
2022/09/07 08:15:46;;;;;;;5.00;1.73;;;;;;;;;;5042835;28;20041;-73
2022/09/07 08:18:13;;;;;;;6.35;1.67;;;;;;;;;;5042846;28;20049;-72
2022/09/07 08:20:39;;;;;;;2.05;1.50;;;;;;;;;;5041846;28;20424;-72
2022/09/07 08:23:06;;;;;;;4.20;1.23;;;;;;;;;;5042088;28;20041;-70
2022/09/07 08:25:35;;;;;;;5.18;1.55;;;;;;;;;;5042840;28;20037;-71
2022/09/07 08:28:01;;;;;;;3.67;1.38;;;;;;;;;;5041823;28;20036;-72
2022/09/07 08:30:27;;;;;;;9.60;1.55;;;;;;;;;;5041287;28;20179;-71
2022/09/07 08:32:53;;;;;;;4.47;1.52;;;;;;;;;;5041701;28;20064;-72
2022/09/07 08:35:18;;;;;;;3.30;1.40;;;;;;;;;;5045082;28;20060;-72
2022/09/07 08:37:44;;;;;;;4.95;1.40;;;;;;;;;;5041734;28;21040;-71
2022/09/07 08:40:17;;;;;;;4.93;1.30;;;;;;;;;;5043976;28;20532;-74
2022/09/07 08:43:38;;;;;;;3.90;1.20;;;;;;;;;;5042042;28;20060;-74
2022/09/07 08:46:15;;;;;;;1.30;1.05;;;;;;;;;;4961566;28;20050;-74
2022/09/07 08:48:41;;;;;;;2.22;1.40;;;;;;;;;;4961724;28;20583;-72
2022/09/07 08:51:15;;;;;;;3.03;1.10;;;;;;;;;;5006304;28;20131;-73
2022/09/07 08:53:45;;;;;;;2.30;1.40;;;;;;;;;;5042973;28;20442;-74
2022/09/07 08:56:25;;;;;;;2.97;1.42;;;;;;;;;;5043520;28;21062;-73
2022/09/07 08:58:52;;;;;;;8.35;1.75;;;;;;;;;;5041103;28;20080;-74
2022/09/07 09:01:22;;;;;;;4.85;1.45;;;;;;;;;;5044385;28;20053;-74
2022/09/07 09:03:48;;;;;;;1.77;1.30;;;;;;;;;;5044731;28;20056;-73
2022/09/07 09:06:34;;;;;;;5.25;1.48;;;;;;;;;;5043520;28;20045;-74
2022/09/07 09:09:08;;;;;;;1.73;1.25;;;;;;;;;;5040374;28;20447;-73
2022/09/07 09:11:59;;;;;;;4.30;1.40;;;;;;;;;;5042591;28;20493;-73
2022/09/07 09:14:43;;;;;;;1.58;1.15;;;;;;;;;;5041959;28;20053;-71
2022/09/07 09:17:28;;;;;;;2.22;1.20;;;;;;;;;;5044545;28;20048;-72
2022/09/07 09:20:19;;;;;;;1.98;1.42;;;;;;;;;;5059304;28;20105;-72
2022/09/07 09:22:44;;;;;;;4.22;1.33;;;;;;;;;;5055869;28;20032;-72
2022/09/07 09:25:32;;;;;;;4.88;1.30;;;;;;;;;;5060074;28;20139;-72
2022/09/07 09:27:58;;;;;;;8.73;1.55;;;;;;;;;;5060332;28;20560;-71
2022/09/07 09:30:24;;;;;;;6.35;1.40;;;;;;;;;;5043891;28;20136;-72
2022/09/07 09:33:10;;;;;;;4.30;1.40;;;;;;;;;;5040225;28;20048;-72
2022/09/07 09:35:37;;;;;;;6.75;1.67;;;;;;;;;;5040960;28;20080;-71
2022/09/07 09:38:03;;;;;;;2.55;1.40;;;;;;;;;;5039885;28;20049;-72
2022/09/07 09:40:33;;;;;;;3.90;1.30;;;;;;;;;;5039285;28;20448;-71
2022/09/07 09:43:16;;;;;;;5.63;1.67;;;;;;;;;;5039036;28;20459;-71
2022/09/07 09:45:45;;;;;;;3.53;1.48;;;;;;;;;;5041417;28;20049;-72
2022/09/07 09:48:19;;;;;;;3.83;1.33;;;;;;;;;;5042207;28;20041;-71
2022/09/07 09:50:51;;;;;;;3.38;1.25;;;;;;;;;;5040714;28;20049;-72
2022/09/07 09:53:28;;;;;;;;;;;;;;;;;;5041289;28;20057;-72
2022/09/07 09:55:54;;;;;;;4.57;1.48;;;;;;;;;;5040813;28;19963;-73
2022/09/07 09:58:34;;;;;;;7.00;1.55;;;;;;;;;;5041676;28;20057;-71
2022/09/07 10:01:02;;;;;;;7.07;1.60;;;;;;;;;;5040003;28;20048;-70
2022/09/07 10:03:31;;;;;;;3.45;1.27;;;;;;;;;;5041360;28;20060;-72
2022/09/07 10:05:58;;;;;;;4.85;1.40;;;;;;;;;;5032673;28;20102;-71
2022/09/07 10:08:29;;;;;;;4.07;1.20;;;;;;;;;;5039436;28;20136;-72
2022/09/07 10:11:05;;;;;;;4.22;1.25;;;;;;;;;;5039717;28;20401;-72
2022/09/07 10:13:37;;;;;;;4.38;1.30;;;;;;;;;;5039436;28;20143;-71
2022/09/07 10:16:07;;;;;;;7.10;1.40;;;;;;;;;;5038554;28;20049;-70
2022/09/07 10:18:37;;;;;;;4.53;1.60;;;;;;;;;;5038243;28;20581;-71
2022/09/07 10:21:22;;;;;;;3.95;1.45;;;;;;;;;;5038082;28;20060;-70
2022/09/07 10:24:04;;;;;;;6.85;1.30;;;;;;;;;;5048401;28;20596;-70
2022/09/07 10:26:34;;;;;;;8.15;1.58;;;;;;;;;;5038875;28;20056;-72
2022/09/07 10:29:15;;;;;;;6.75;1.63;;;;;;;;;;5040713;28;20908;-71
2022/09/07 10:32:08;;;;;;;4.97;1.70;;;;;;;;;;5040738;28;20072;-73
2022/09/07 10:34:52;;;;;;;2.85;1.45;;;;;;;;;;5038627;28;20060;-70
2022/09/07 10:37:23;;;;;;;4.05;1.60;;;;;;;;;;5051154;28;20059;-73
2022/09/07 10:39:57;;;;;;;4.72;1.80;;;;;;;;;;5040851;28;20045;-72
2022/09/07 10:42:38;;;;;;;3.33;1.33;;;;;;;;;;5039827;28;20040;-71
2022/09/07 10:45:12;;;;;;;4.05;1.48;;;;;;;;;;5042994;28;20076;-72
2022/09/07 10:47:47;;;;;;;6.38;1.35;;;;;;;;;;5060560;28;20050;-72
2022/09/07 10:50:38;;;;;;;2.17;1.25;;;;;;;;;;5060630;28;20040;-72
2022/09/07 10:53:25;;;;;;;5.05;1.60;;;;;;;;;;5074829;28;20052;-71
2022/09/07 10:56:08;;;;;;;3.67;1.35;;;;;;;;;;5061283;28;20040;-71
2022/09/07 10:59:01;;;;;;;2.17;1.30;;;;;;;;;;5058737;28;20062;-73
2022/09/07 11:01:45;;;;;;;2.42;1.40;;;;;;;;;;5060393;28;20091;-72
2022/09/07 11:04:50;;;;;;;3.42;1.25;;;;;;;;;;5061791;28;20103;-72
2022/09/07 11:07:34;;;;;;;2.95;1.40;;;;;;;;;;5059404;28;20528;-72
2022/09/07 11:10:16;;;;;;;1.52;1.20;;;;;;;;;;5062058;28;20454;-72
2022/09/07 11:12:43;;;;;;;3.15;1.02;;;;;;;;;;5044878;28;20064;-72
2022/09/07 11:15:11;;;;;;;3.33;0.90;;;;;;;;;;5042010;28;20061;-72
2022/09/07 11:17:46;;;;;;;2.47;0.93;;;;;;;;;;5041564;28;20059;-71
2022/09/07 11:20:28;;;;;;;2.10;0.95;;;;;;;;;;5040265;28;20516;-71
2022/09/07 11:23:02;;;;;;;;;;;;;;;;;;5040995;28;20048;-71
2022/09/07 11:25:52;;;;;;;3.75;1.00;;;;;;;;;;5051840;28;19959;-72
2022/09/07 11:28:33;;;;;;;2.67;1.13;;;;;;;;;;5047168;28;20057;-71
2022/09/07 11:31:03;;;;;;;2.95;1.00;;;;;;;;;;5040343;28;20044;-72
2022/09/07 11:33:33;;;;;;;1.50;1.10;;;;;;;;;;5041457;28;20053;-72
2022/09/07 11:36:08;;;;;;;6.40;1.30;;;;;;;;;;5042411;28;20041;-72
2022/09/07 11:38:53;;;;;;;4.97;0.93;;;;;;;;;;5048698;28;20116;-72
2022/09/07 11:41:25;;;;;;;5.55;1.20;;;;;;;;;;5052153;28;20049;-72
2022/09/07 11:44:12;;;;;;;3.65;1.33;;;;;;;;;;5043436;28;20055;-71
2022/09/07 11:46:51;;;;;;;3.42;1.10;;;;;;;;;;5043161;28;20677;-72
2022/09/07 11:49:21;;;;;;;2.13;1.30;;;;;;;;;;5043043;28;20135;-72
2022/09/07 11:51:55;;;;;;;4.70;1.57;;;;;;;;;;5042298;28;20179;-72
2022/09/07 11:54:42;;;;;;;2.20;1.50;;;;;;;;;;5041940;28;20409;-72
2022/09/07 11:57:08;;;;;;;3.08;1.60;;;;;;;;;;5040164;28;20071;-72
2022/09/07 11:59:38;;;;;;;3.88;1.35;;;;;;;;;;5042955;28;20163;-72
2022/09/07 12:02:13;;;;;;;2.53;1.20;;;;;;;;;;5042539;28;20060;-72
2022/09/07 12:04:54;;;;;;;4.78;1.58;;;;;;;;;;5041076;28;20106;-72
2022/09/07 12:07:34;;;;;;;2.25;1.20;;;;;;;;;;5041703;28;20107;-72
2022/09/07 12:10:28;;;;;;;6.83;1.47;;;;;;;;;;5039775;28;20143;-72
2022/09/07 12:13:23;;;;;;;4.07;1.30;;;;;;;;;;5039329;28;20061;-73
2022/09/07 12:16:03;;;;;;;6.70;1.40;;;;;;;;;;5038979;28;20052;-72
2022/09/07 12:19:00;;;;;;;2.88;1.30;;;;;;;;;;5039577;28;20076;-71
2022/09/07 12:21:51;;;;;;;3.75;1.40;;;;;;;;;;5037299;28;20048;-72
2022/09/07 12:24:32;;;;;;;7.47;1.50;;;;;;;;;;5040052;28;20497;-72
2022/09/07 12:27:30;;;;;;;7.95;1.30;;;;;;;;;;5038810;28;20182;-72
2022/09/07 12:29:56;;;;;;;3.08;1.40;;;;;;;;;;5039561;28;20073;-71
2022/09/07 12:32:47;;;;;;;5.18;1.73;;;;;;;;;;5038653;28;21150;-73
2022/09/07 12:35:25;;;;;;;12.90;1.70;;;;;;;;;;5011375;28;20080;-72
2022/09/07 12:37:52;;;;;;;2.47;1.52;;;;;;;;;;5039610;28;20132;-70
2022/09/07 12:40:26;;;;;;;2.53;1.38;;;;;;;;;;5040367;28;20073;-71
2022/09/07 12:43:13;;;;;;;3.25;1.30;;;;;;;;;;5039366;28;20037;-73
2022/09/07 12:45:39;;;;;;;2.28;1.30;;;;;;;;;;5039172;28;20049;-72
2022/09/07 12:48:16;;;;;;;4.03;1.17;;;;;;;;;;5039057;28;20056;-70
2022/09/07 12:50:55;;;;;;;3.38;1.30;;;;;;;;;;5039802;28;20076;-71
2022/09/07 12:53:29;;;;;;;3.05;1.30;;;;;;;;;;5040915;28;20079;-72
2022/09/07 12:56:08;;;;;;;4.00;1.13;;;;;;;;;;5015203;28;20087;-71
2022/09/07 12:58:42;;;;;;;4.85;1.30;;;;;;;;;;5039056;28;20044;-71
2022/09/07 13:01:13;;;;;;;3.33;1.25;;;;;;;;;;5043572;28;20081;-70
2022/09/07 13:03:59;;;;;;;7.65;1.27;;;;;;;;;;5043638;28;20060;-70
2022/09/07 13:06:28;;;;;;;3.83;1.35;;;;;;;;;;5041882;28;21003;-70
2022/09/07 13:09:27;;;;;;;3.25;1.40;;;;;;;;;;5040967;28;20049;-70
2022/09/07 13:11:52;;;;;;;3.38;1.58;;;;;;;;;;5041236;28;20497;-70
2022/09/07 13:14:20;;;;;;;7.03;1.63;;;;;;;;;;5042107;28;20098;-71
2022/09/07 13:16:48;;;;;;;4.55;1.60;;;;;;;;;;5041225;28;20093;-71
2022/09/07 13:19:35;;;;;;;3.30;1.40;;;;;;;;;;5041721;28;20044;-70
2022/09/07 13:22:00;;;;;;;8.18;1.70;;;;;;;;;;5010904;28;20049;-71
2022/09/07 13:24:58;;;;;;;3.15;1.30;;;;;;;;;;5056809;28;20037;-70
2022/09/07 13:27:40;;;;;;;5.25;1.50;;;;;;;;;;4974176;28;20840;-70
2022/09/07 13:30:14;;;;;;;4.78;1.38;;;;;;;;;;5041257;28;20056;-70
2022/09/07 13:32:40;;;;;;;3.22;1.17;;;;;;;;;;5040295;28;20049;-71
2022/09/07 13:35:11;;;;;;;3.60;1.52;;;;;;;;;;5041803;28;20096;-70
2022/09/07 13:37:59;;;;;;;5.70;1.37;;;;;;;;;;5043144;28;20416;-69
2022/09/07 13:40:27;;;;;;;2.63;1.58;;;;;;;;;;5042378;28;20876;-71
2022/09/07 13:42:54;;;;;;;2.30;1.27;;;;;;;;;;5041993;28;20044;-71
2022/09/07 13:45:54;;;;;;;9.43;1.85;;;;;;;;;;5042049;28;20131;-70
2022/09/07 13:48:46;;;;;;;3.38;1.15;;;;;;;;;;5042708;28;20040;-70
2022/09/07 13:51:24;;;;;;;3.40;1.60;;;;;;;;;;5039848;28;21129;-69
2022/09/07 13:54:13;;;;;;;4.65;1.40;;;;;;;;;;5042610;28;20063;-72
2022/09/07 13:56:47;;;;;;;6.07;1.40;;;;;;;;;;5043561;28;20071;-71
2022/09/07 13:59:21;;;;;;;2.78;1.40;;;;;;;;;;5052026;28;20041;-71
2022/09/07 14:01:48;;;;;;;5.40;1.10;;;;;;;;;;5046761;28;20417;-71
2022/09/07 14:04:24;;;;;;;7.32;1.40;;;;;;;;;;5042871;28;20044;-72
2022/09/07 14:06:49;;;;;;;4.18;1.42;;;;;;;;;;5041209;28;20053;-70
2022/09/07 14:09:19;;;;;;;3.72;1.40;;;;;;;;;;5042062;28;20048;-70
2022/09/07 14:11:53;;;;;;;4.15;1.30;;;;;;;;;;5039029;28;20938;-71
2022/09/07 14:14:36;;;;;;;4.35;1.48;;;;;;;;;;5041742;28;20045;-70
2022/09/07 14:17:06;;;;;;;2.10;1.10;;;;;;;;;;5040902;28;20049;-73
2022/09/07 14:19:40;;;;;;;6.85;1.45;;;;;;;;;;5042270;28;20578;-72
2022/09/07 14:22:30;;;;;;;2.65;1.30;;;;;;;;;;5042446;28;20497;-72
2022/09/07 14:25:04;;;;;;;10.32;1.48;;;;;;;;;;5041482;28;20140;-72
2022/09/07 14:27:40;;;;;;;3.60;1.25;;;;;;;;;;5041140;28;20131;-73
2022/09/07 14:30:17;;;;;;;4.55;1.42;;;;;;;;;;5041053;28;20149;-72
2022/09/07 14:32:45;;;;;;;5.53;1.50;;;;;;;;;;5041068;28;20049;-70
2022/09/07 14:35:12;;;;;;;2.90;1.10;;;;;;;;;;5041142;28;20169;-73
2022/09/07 14:37:38;;;;;;;5.70;1.65;;;;;;;;;;5040411;28;20091;-71
2022/09/07 14:40:04;;;;;;;1.50;1.10;;;;;;;;;;5040683;28;20116;-71
2022/09/07 14:42:30;;;;;;;4.28;1.48;;;;;;;;;;5041434;28;20106;-71
2022/09/07 14:45:15;;;;;;;3.25;1.20;;;;;;;;;;5039991;28;20045;-71
2022/09/07 14:47:40;;;;;;;2.88;1.38;;;;;;;;;;5040646;28;20142;-71
2022/09/07 14:50:17;;;;;;;4.65;1.23;;;;;;;;;;5039740;28;20306;-71
2022/09/07 14:52:53;;;;;;;7.07;1.48;;;;;;;;;;5040332;28;20041;-71
2022/09/07 14:55:31;;;;;;;6.03;1.50;;;;;;;;;;5040650;28;20053;-71
2022/09/07 14:58:12;;;;;;;3.33;1.30;;;;;;;;;;5040830;28;20068;-71
2022/09/07 15:00:40;;;;;;;5.35;1.63;;;;;;;;;;5039769;28;20055;-70
2022/09/07 15:03:26;;;;;;;2.13;1.20;;;;;;;;;;5041154;28;20044;-70
2022/09/07 15:05:51;;;;;;;2.83;1.30;;;;;;;;;;5040971;28;20064;-70
2022/09/07 15:08:47;;;;;;;2.63;1.50;;;;;;;;;;5040588;28;20037;-70
2022/09/07 15:11:21;;;;;;;5.25;1.58;;;;;;;;;;5066532;28;20053;-71
2022/09/07 15:13:57;;;;;;;1.80;1.17;;;;;;;;;;5040063;28;20068;-70